createdAt,value
2019-01-11T00:03:44.600Z,1.29
2019-01-11T00:07:48.774Z,1.28
2019-01-11T00:11:53.002Z,1.26
2019-01-11T00:15:57.164Z,1.27
2019-01-11T00:20:03.771Z,1.32
2019-01-11T00:24:07.624Z,1.33
2019-01-11T00:28:11.758Z,1.33
2019-01-11T00:32:15.934Z,1.33
2019-01-11T00:36:20.062Z,1.32
2019-01-11T00:40:24.230Z,1.31
2019-01-11T00:44:28.412Z,1.28
2019-01-11T00:48:32.583Z,1.27
2019-01-11T00:52:36.810Z,1.25
2019-01-11T00:56:40.950Z,1.23
2019-01-11T01:00:45.488Z,1.21
2019-01-11T01:04:49.615Z,1.17
2019-01-11T01:08:53.793Z,1.11
2019-01-11T01:12:58.004Z,1.09
2019-01-11T01:17:02.176Z,1.08
2019-01-11T01:21:06.319Z,1.03
2019-01-11T01:25:11.807Z,1.00
2019-01-11T01:29:16.204Z,1.00
2019-01-11T01:33:20.383Z,0.99
2019-01-11T01:37:24.548Z,1.02
2019-01-11T01:41:28.722Z,1.02
2019-01-11T01:45:32.864Z,0.99
2019-01-11T01:49:37.035Z,0.94
2019-01-11T01:53:41.215Z,0.96
2019-01-11T01:57:45.385Z,0.96
2019-01-11T02:01:49.562Z,0.93
2019-01-11T02:05:53.714Z,0.94
2019-01-11T02:09:57.955Z,0.94
2019-01-11T02:14:02.083Z,0.91
2019-01-11T02:18:06.373Z,0.92
2019-01-11T02:22:10.612Z,0.89
2019-01-11T02:26:14.751Z,0.91
2019-01-11T02:30:23.386Z,0.88
2019-01-11T02:34:27.566Z,0.89
2019-01-11T02:38:32.327Z,0.88
2019-01-11T02:42:36.588Z,0.89
2019-01-11T02:46:40.773Z,0.86
2019-01-11T02:50:44.894Z,0.85
2019-01-11T02:54:49.112Z,0.83
2019-01-11T02:58:53.291Z,0.82
2019-01-11T03:02:57.452Z,0.82
2019-01-11T03:07:01.671Z,0.80
2019-01-11T03:11:05.764Z,0.79
2019-01-11T03:15:10.522Z,0.79
2019-01-11T03:19:14.697Z,0.82
2019-01-11T03:23:18.883Z,0.82
2019-01-11T03:27:23.044Z,0.80
2019-01-11T03:31:34.042Z,0.77
2019-01-11T03:35:38.235Z,0.75
2019-01-11T03:39:42.418Z,0.79
2019-01-11T03:43:46.589Z,0.79
2019-01-11T03:47:50.818Z,0.79
2019-01-11T03:51:54.947Z,0.75
2019-01-11T03:55:59.153Z,0.75
2019-01-11T04:00:03.359Z,0.77
2019-01-11T04:04:07.483Z,0.77
2019-01-11T04:08:11.658Z,0.75
2019-01-11T04:12:15.851Z,0.73
2019-01-11T04:16:20.067Z,0.73
2019-01-11T04:20:24.294Z,0.72
2019-01-11T04:24:30.117Z,0.70
2019-01-11T04:28:34.506Z,0.66
2019-01-11T04:32:38.679Z,0.65
2019-01-11T04:36:42.857Z,0.60
2019-01-11T04:40:47.041Z,0.52
2019-01-11T04:44:51.218Z,0.51
2019-01-11T04:48:55.328Z,0.48
2019-01-11T04:52:59.494Z,0.44
2019-01-11T04:57:03.719Z,0.39
2019-01-11T05:01:07.870Z,0.36
2019-01-11T05:05:12.661Z,0.34
2019-01-11T05:09:16.839Z,0.31
2019-01-11T05:13:39.963Z,0.28
2019-01-11T05:17:44.144Z,0.26
2019-01-11T05:21:48.305Z,0.25
2019-01-11T05:25:52.746Z,0.24
2019-01-11T05:29:56.889Z,0.25
2019-01-11T05:34:01.059Z,0.26
2019-01-11T05:38:05.241Z,0.29
2019-01-11T05:42:09.390Z,0.30
2019-01-11T05:46:13.562Z,0.29
2019-01-11T05:50:24.037Z,0.28
2019-01-11T05:54:25.488Z,0.29
2019-01-11T05:58:30.984Z,0.26
2019-01-11T06:02:35.353Z,0.26
2019-01-11T06:06:57.120Z,0.24
2019-01-11T06:11:01.568Z,0.26
2019-01-11T06:15:06.671Z,0.25
2019-01-11T06:19:10.841Z,0.23
2019-01-11T06:23:15.005Z,0.19
2019-01-11T06:27:19.244Z,0.18
2019-01-11T06:31:23.517Z,0.17
2019-01-11T06:35:27.784Z,0.15
2019-01-11T06:39:32.101Z,0.17
2019-01-11T06:43:36.477Z,0.18
2019-01-11T06:47:40.922Z,0.17
2019-01-11T06:51:45.174Z,0.15
2019-01-11T06:55:49.323Z,0.12
2019-01-11T06:59:53.502Z,0.12
2019-01-11T07:03:57.677Z,0.13
2019-01-11T07:08:01.861Z,0.12
2019-01-11T07:12:06.165Z,0.11
2019-01-11T07:16:10.431Z,0.12
2019-01-11T07:20:14.602Z,0.14
2019-01-11T07:24:18.793Z,0.13
2019-01-11T07:28:22.984Z,0.16
2019-01-11T07:32:27.217Z,0.15
2019-01-11T07:36:34.954Z,0.17
2019-01-11T07:40:39.144Z,0.15
2019-01-11T07:44:43.416Z,0.14
2019-01-11T07:48:47.664Z,0.15
2019-01-11T07:52:51.889Z,0.20
2019-01-11T07:56:58.065Z,0.24
2019-01-11T08:01:02.356Z,0.19
2019-01-11T08:05:07.183Z,0.19
2019-01-11T08:09:11.390Z,0.22
2019-01-11T08:13:16.010Z,0.19
2019-01-11T08:17:20.253Z,0.17
2019-01-11T08:21:24.398Z,0.17
2019-01-11T08:25:28.571Z,0.18
2019-01-11T08:29:33.233Z,0.16
2019-01-11T08:33:37.502Z,0.20
2019-01-11T08:37:41.684Z,0.20
2019-01-11T08:41:45.813Z,0.18
2019-01-11T08:45:50.008Z,0.21
2019-01-11T08:49:54.211Z,0.21
2019-01-11T08:53:58.416Z,0.29
2019-01-11T08:58:02.568Z,0.62
2019-01-11T09:02:06.751Z,0.73
2019-01-11T09:06:11.357Z,0.66
2019-01-11T09:10:22.480Z,0.53
2019-01-11T09:14:39.447Z,0.53
2019-01-11T09:18:53.483Z,0.48
2019-01-11T09:22:57.657Z,0.44
2019-01-11T09:27:01.825Z,0.50
2019-01-11T09:31:06.004Z,0.52
2019-01-11T09:35:10.128Z,0.51
2019-01-11T09:39:14.299Z,0.51
2019-01-11T09:43:18.425Z,0.50
2019-01-11T09:47:22.598Z,0.51
2019-01-11T09:51:26.770Z,0.55
2019-01-11T09:55:30.959Z,0.62
2019-01-11T09:59:35.381Z,0.61
2019-01-11T10:03:39.548Z,0.64
2019-01-11T10:07:43.711Z,0.58
2019-01-11T10:11:47.888Z,0.58
2019-01-11T10:15:52.078Z,0.61
2019-01-11T10:19:56.434Z,0.58
2019-01-11T10:24:00.568Z,0.68
2019-01-11T10:28:04.747Z,0.72
2019-01-11T10:32:09.058Z,0.76
2019-01-11T10:36:13.327Z,0.86
2019-01-11T10:40:18.223Z,0.98
2019-01-11T10:44:22.384Z,0.96
2019-01-11T10:48:26.571Z,0.95
2019-01-11T10:52:30.695Z,1.06
2019-01-11T10:56:34.885Z,1.04
2019-01-11T11:00:39.060Z,1.09
2019-01-11T11:04:43.300Z,1.13
2019-01-11T11:08:47.472Z,1.09
2019-01-11T11:12:51.772Z,1.09
2019-01-11T11:16:56.129Z,1.11
2019-01-11T11:21:00.462Z,1.07
2019-01-11T11:25:06.375Z,1.09
2019-01-11T11:29:10.646Z,1.21
2019-01-11T11:33:14.977Z,1.21
2019-01-11T11:37:19.467Z,1.25
2019-01-11T11:41:23.780Z,1.28
2019-01-11T11:45:28.573Z,1.28
2019-01-11T11:49:32.862Z,1.25
2019-01-11T11:53:37.946Z,1.21
2019-01-11T11:57:42.386Z,1.21
2019-01-11T12:01:46.883Z,1.18
2019-01-11T12:05:51.160Z,1.19
2019-01-11T12:09:57.328Z,1.26
2019-01-11T12:14:01.753Z,1.29
2019-01-11T12:18:06.067Z,1.31
2019-01-11T12:22:10.559Z,1.36
2019-01-11T12:26:14.915Z,1.43
2019-01-11T12:30:19.628Z,1.45
2019-01-11T12:34:24.031Z,1.49
2019-01-11T12:38:28.334Z,1.58
2019-01-11T12:42:32.945Z,1.47
2019-01-11T12:46:37.640Z,1.37
2019-01-11T12:50:42.029Z,1.31
2019-01-11T12:54:46.388Z,1.26
2019-01-11T12:58:50.681Z,1.26
2019-01-11T13:02:55.239Z,1.26
2019-01-11T13:06:59.656Z,1.27
2019-01-11T13:11:03.936Z,1.24
2019-01-11T13:15:10.702Z,1.25
2019-01-11T13:19:15.070Z,1.26
2019-01-11T13:23:19.410Z,1.28
2019-01-11T13:27:23.769Z,1.26
2019-01-11T13:31:28.088Z,1.20
2019-01-11T13:35:32.323Z,1.20
2019-01-11T13:39:37.993Z,1.17
2019-01-11T13:43:43.160Z,1.13
2019-01-11T13:47:47.520Z,1.13
2019-01-11T13:51:51.864Z,1.11
2019-01-11T13:55:56.178Z,1.07
2019-01-11T14:00:00.543Z,1.06
2019-01-11T14:04:04.890Z,1.09
2019-01-11T14:08:09.190Z,1.17
2019-01-11T14:12:13.647Z,1.20
2019-01-11T14:16:18.090Z,1.15
2019-01-11T14:20:22.455Z,1.12
2019-01-11T14:24:29.334Z,1.09
2019-01-11T14:28:35.191Z,1.02
2019-01-11T14:32:39.544Z,1.01
2019-01-11T14:36:46.433Z,0.97
2019-01-11T14:40:54.378Z,0.94
2019-01-11T14:44:58.770Z,0.87
2019-01-11T14:49:03.267Z,0.83
2019-01-11T14:53:08.347Z,0.76
2019-01-11T14:57:12.695Z,0.76
2019-01-11T15:01:17.080Z,0.73
2019-01-11T15:05:23.606Z,0.71
2019-01-11T15:09:27.937Z,0.69
2019-01-11T15:13:32.301Z,0.70
2019-01-11T15:17:38.638Z,0.69
2019-01-11T15:21:43.047Z,0.62
2019-01-11T15:25:48.146Z,0.57
2019-01-11T15:29:52.838Z,0.54
2019-01-11T15:33:57.225Z,0.51
2019-01-11T15:38:01.535Z,0.47
2019-01-11T15:42:05.882Z,0.45
2019-01-11T15:46:15.075Z,0.40
2019-01-11T15:50:36.903Z,0.37
2019-01-11T15:54:41.386Z,0.34
2019-01-11T15:58:45.877Z,0.35
2019-01-11T16:02:50.222Z,0.36
2019-01-11T16:06:54.663Z,0.32
2019-01-11T16:11:30.369Z,0.31
2019-01-11T16:16:16.921Z,0.26
2019-01-11T16:20:21.309Z,0.25
2019-01-11T16:24:26.365Z,0.27
2019-01-11T16:28:31.636Z,0.26
2019-01-11T16:32:46.099Z,0.26
2019-01-11T16:37:03.368Z,0.24
2019-01-11T16:41:07.668Z,0.27
2019-01-11T16:45:13.136Z,0.29
2019-01-11T16:49:25.409Z,0.28
2019-01-11T16:53:29.806Z,0.34
2019-01-11T16:57:34.504Z,0.34
2019-01-11T17:01:39.375Z,0.34
2019-01-11T17:05:43.852Z,0.40
2019-01-11T17:09:48.175Z,0.42
2019-01-11T17:13:52.730Z,0.46
2019-01-11T17:17:57.027Z,0.48
2019-01-11T17:22:01.428Z,0.52
2019-01-11T17:26:05.707Z,0.53
2019-01-11T17:30:16.509Z,0.56
2019-01-11T17:34:21.990Z,0.59
2019-01-11T17:38:26.321Z,0.64
2019-01-11T17:42:30.545Z,0.68
2019-01-11T17:46:34.834Z,0.72
2019-01-11T17:50:39.632Z,0.73
2019-01-11T17:54:44.053Z,0.78
2019-01-11T17:58:48.540Z,0.79
2019-01-11T18:02:53.092Z,0.84
2019-01-11T18:06:57.353Z,0.91
2019-01-11T18:11:01.657Z,0.89
2019-01-11T18:15:11.202Z,0.92
2019-01-11T18:19:15.608Z,0.96
2019-01-11T18:23:20.262Z,0.96
2019-01-11T18:27:24.604Z,0.98
2019-01-11T18:31:29.001Z,0.98
2019-01-11T18:35:33.691Z,0.99
2019-01-11T18:39:37.998Z,0.99
2019-01-11T18:43:42.319Z,0.96
2019-01-11T18:47:46.748Z,0.91
2019-01-11T18:51:51.027Z,0.88
2019-01-11T18:55:55.363Z,0.87
2019-01-11T18:59:59.612Z,0.85
2019-01-11T19:04:04.096Z,0.90
2019-01-11T19:08:08.473Z,0.91
2019-01-11T19:12:12.733Z,0.95
2019-01-11T19:16:17.061Z,0.98
2019-01-11T19:20:23.888Z,1.00
2019-01-11T19:24:28.182Z,1.02
2019-01-11T19:28:32.506Z,1.00
2019-01-11T19:32:36.877Z,1.03
2019-01-11T19:36:41.228Z,1.07
2019-01-11T19:40:45.798Z,1.04
2019-01-11T19:44:50.443Z,1.04
2019-01-11T19:48:54.752Z,1.03
2019-01-11T19:52:59.060Z,0.99
2019-01-11T19:57:03.788Z,0.98
2019-01-11T20:01:08.311Z,0.98
2019-01-11T20:05:13.389Z,0.93
2019-01-11T20:09:17.704Z,0.89
2019-01-11T20:13:22.017Z,0.86
2019-01-11T20:17:26.273Z,0.84
2019-01-11T20:21:30.681Z,0.80
2019-01-11T20:25:34.995Z,0.77
2019-01-11T20:29:39.339Z,0.72
2019-01-11T20:33:43.733Z,0.71
2019-01-11T20:37:48.095Z,0.70
2019-01-11T20:41:52.391Z,0.73
2019-01-11T20:46:02.957Z,0.74
2019-01-11T20:50:03.227Z,0.74
2019-01-11T20:54:07.664Z,0.78
2019-01-11T20:58:12.412Z,0.79
2019-01-11T21:02:17.054Z,0.75
2019-01-11T21:06:21.615Z,0.76
2019-01-11T21:10:26.627Z,0.79
2019-01-11T21:14:31.355Z,0.81
2019-01-11T21:18:36.225Z,0.82
2019-01-11T21:22:40.811Z,0.83
2019-01-11T21:26:45.136Z,0.85
2019-01-11T21:30:49.365Z,0.86
2019-01-11T21:34:55.330Z,0.85
2019-01-11T21:38:59.573Z,0.87
2019-01-11T21:43:04.375Z,0.88
2019-01-11T21:47:09.273Z,0.88
2019-01-11T21:51:13.563Z,0.90
2019-01-11T21:55:17.974Z,0.92
2019-01-11T21:59:22.306Z,0.94
2019-01-11T22:03:26.557Z,0.93
2019-01-11T22:07:30.826Z,0.91
2019-01-11T22:11:35.490Z,0.91
2019-01-11T22:15:40.537Z,0.86
2019-01-11T22:19:44.763Z,0.85
2019-01-11T22:23:49.036Z,0.84
2019-01-11T22:27:53.287Z,0.85
2019-01-11T22:31:57.564Z,0.84
2019-01-11T22:36:01.825Z,0.83
2019-01-11T22:40:08.907Z,0.81
2019-01-11T22:44:13.199Z,0.85
2019-01-11T22:48:17.466Z,0.89
2019-01-11T22:52:21.776Z,0.91
2019-01-11T22:56:26.442Z,0.92
2019-01-11T23:01:08.967Z,0.90
2019-01-11T23:05:14.618Z,0.92
2019-01-11T23:09:21.071Z,0.89
2019-01-11T23:13:25.425Z,0.92
2019-01-11T23:17:59.349Z,0.92
2019-01-11T23:22:03.634Z,0.91
2019-01-11T23:26:07.966Z,0.93
2019-01-11T23:30:15.302Z,0.97
2019-01-11T23:34:19.588Z,1.02
2019-01-11T23:38:23.884Z,1.04
2019-01-11T23:42:28.139Z,1.10
2019-01-11T23:46:32.438Z,1.15
2019-01-11T23:50:36.967Z,1.17
2019-01-11T23:54:41.269Z,1.16
2019-01-11T23:58:45.505Z,1.16
